Latest Weather Observations for Friendly Beaches

IDT60801

Issued at 11:11 pm EST Monday 26 September 2022 (issued every 10 minutes, with the page automatically refreshed every 10 minutes)

About weather observations | Map of weather stations | Latest weather observations for TAS | Other Formats
Station Details ID: 092114 Name: FRIENDLY BEACHES Lat: -42.00 Lon: 148.28 Height: 55.0 m
Data from the previous 72 hours. | See also: Recent months at Friendly Beaches
Date/Time
EST
Temp
°C
App
Temp
°C
Dew
Point
°C
Rel
Hum
%
Delta-T
°C
Wind Press
QNH
hPa
Press
MSL
hPa
Rain since
9am
mm
Dir  Spd
km/h
Gust
km/h
Spd
kts
Gust
kts
26/11:00pm 10.6 10.1 9.5 93 0.6 NE 2 4 1 2 1015.7 1015.8 2.0
26/10:30pm 10.6 9.8 9.5 93 0.6 NNE 4 4 2 2 1015.7 1015.8 2.0
26/10:00pm 10.7 9.9 9.6 93 0.6 NNE 4 4 2 2 1015.5 1015.6 2.0
26/09:30pm 10.7 9.9 9.6 93 0.6 NW 4 4 2 2 1015.3 1015.4 2.0
26/09:00pm 10.8 9.6 9.6 92 0.6 WNW 6 6 3 3 1015.4 1015.5 2.0
26/08:30pm 10.9 9.7 9.7 92 0.6 NW 6 6 3 3 1015.3 1015.4 2.0
26/08:00pm 11.0 10.2 9.8 92 0.6 WNW 4 6 2 3 1015.1 1015.2 1.8
26/07:30pm 11.0 9.8 9.6 91 0.7 NNW 6 9 3 5 1015.0 1015.0 1.0
26/07:00pm 11.3 10.0 9.9 91 0.7 NNW 7 9 4 5 1014.6 1014.6 0.8
26/06:30pm 11.7 10.6 9.9 89 0.9 NW 6 7 3 4 1014.1 1014.1 0.4
26/06:00pm 12.1 10.9 10.2 88 1.0 N 7 13 4 7 1013.7 1013.7 0.0
26/05:30pm 12.6 11.1 10.5 87 1.1 NE 9 13 5 7 1013.5 1013.5 0.0
26/05:00pm 12.6 11.0 10.1 85 1.3 NE 9 13 5 7 1013.1 1013.1 0.0
26/04:30pm 12.7 10.1 9.5 81 1.6 NNE 13 20 7 11 1013.0 1013.0 0.0
26/04:00pm 13.1 10.5 9.2 77 2.0 NNE 13 20 7 11 1012.9 1012.9 0.0
26/03:30pm 13.7 10.7 9.2 74 2.3 NNE 15 24 8 13 1013.0 1013.0 0.0
26/03:00pm 13.8 10.3 8.6 71 2.6 NNE 17 24 9 13 1013.0 1013.0 0.0
26/02:30pm 14.8 11.3 8.7 67 3.1 NE 17 24 9 13 1013.1 1013.1 0.0
26/02:00pm 15.5 12.1 9.0 65 3.3 NE 17 24 9 13 1013.4 1013.4 0.0
26/01:30pm 15.5 12.0 8.7 64 3.5 NE 17 24 9 13 1013.5 1013.5 0.0
26/01:00pm 16.1 12.6 8.6 61 3.8 NNE 17 30 9 16 1013.6 1013.6 0.0
26/12:30pm 17.8 14.3 8.6 55 4.8 NNE 17 28 9 15 1013.9 1013.9 0.0
26/12:00pm 16.6 14.1 8.1 57 4.3 NE 11 20 6 11 1014.2 1014.2 0.0
26/11:30am 13.8 10.2 8.2 69 2.8 NNE 17 26 9 14 1014.4 1014.4 0.0
26/11:00am 15.6 11.5 7.9 60 3.9 NNE 19 30 10 16 1014.5 1014.5 0.0
26/10:30am 16.8 13.2 8.2 57 4.4 NNE 17 24 9 13 1014.6 1014.6 0.0
26/10:00am 16.2 13.8 8.7 61 3.8 NE 11 17 6 9 1014.7 1014.7 0.0
26/09:30am 14.7 12.2 8.4 66 3.2 NE 11 17 6 9 1015.0 1015.0 0.0
26/09:00am 12.8 11.7 8.5 75 2.1 SE 4 6 2 3 1015.2 1015.3 0.2
26/08:30am 12.4 11.6 8.1 75 2.1 E 2 6 1 3 1015.2 1015.3 0.2
26/08:00am 11.8 10.7 8.3 79 1.7 ENE 4 6 2 3 1015.1 1015.2 0.2
26/07:30am 10.1 8.6 8.5 90 0.8 ENE 6 6 3 3 1014.8 1014.8 0.2
26/07:00am 7.2 5.1 5.7 90 0.7 NNE 6 9 3 5 1015.0 1015.0 0.2
26/06:30am 6.8 4.4 5.1 89 0.7 WNW 7 13 4 7 1015.2 1015.3 0.2
26/06:00am 6.8 4.4 5.4 91 0.6 NW 7 9 4 5 1014.8 1014.8 0.2
26/05:30am 6.9 4.2 5.5 91 0.6 WNW 9 13 5 7 1014.8 1014.8 0.2
26/05:00am 6.7 3.5 5.3 91 0.6 W 11 17 6 9 1014.7 1014.7 0.2
26/04:30am 6.9 3.5 5.7 92 0.5 WNW 13 19 7 10 1014.6 1014.6 0.2
26/04:00am 6.6 3.8 5.2 91 0.6 WNW 9 13 5 7 1014.4 1014.4 0.2
26/03:30am 7.2 4.2 5.8 91 0.6 WNW 11 15 6 8 1014.2 1014.2 0.0
26/03:00am 7.2 4.2 5.8 91 0.6 W 11 15 6 8 1014.1 1014.1 0.0
26/02:30am 7.2 3.8 5.8 91 0.6 W 13 17 7 9 1014.1 1014.1 0.0
26/02:00am 6.9 4.4 4.9 87 0.9 WNW 7 9 4 5 1014.3 1014.3 0.0
26/01:30am 7.8 5.4 5.3 84 1.1 W 7 9 4 5 1014.3 1014.3 0.0
26/01:00am 7.9 5.2 5.4 84 1.1 W 9 11 5 6 1014.5 1014.5 0.0
26/12:30am 8.1 5.4 5.6 84 1.1 W 9 13 5 7 1014.6 1014.6 0.0
26/12:00am 8.2 5.9 5.7 84 1.1 W 7 11 4 6 1014.6 1014.6 0.0
 
Date/Time
EST
Temp
°C
App
Temp
°C
Dew
Point
°C
Rel
Hum
%
Delta-T
°C
Wind Press
QNH
hPa
Press
MSL
hPa
Rain since
9am
mm
Dir  Spd
km/h
Gust
km/h
Spd
kts
Gust
kts
25/11:30pm 8.6 6.5 5.7 82 1.3 WSW 6 7 3 4 1014.7 1014.7 0.0
25/11:00pm 9.0 6.4 6.1 82 1.3 W 9 13 5 7 1014.6 1014.6 0.0
25/10:30pm 9.3 7.1 6.0 80 1.5 WNW 7 9 4 5 1014.4 1014.4 0.0
25/10:00pm 9.6 7.5 6.5 81 1.4 WNW 7 11 4 6 1014.5 1014.5 0.0
25/09:30pm 9.5 7.8 6.0 79 1.6 NW 4 6 2 3 1014.3 1014.3 0.0
25/09:00pm 10.2 8.0 6.2 76 1.9 W 7 11 4 6 1014.1 1014.1 0.0
25/08:30pm 10.0 8.3 6.0 76 1.9 N 4 6 2 3 1014.0 1014.0 0.0
25/08:00pm 11.0 8.9 6.6 74 2.1 WNW 7 15 4 8 1013.7 1013.7 0.0
25/07:30pm 11.5 9.6 6.6 72 2.3 NW 6 13 3 7 1013.5 1013.5 0.0
25/07:00pm 11.6 9.6 6.9 73 2.2 NW 7 15 4 8 1012.9 1012.9 0.0
25/06:30pm 11.7 10.1 8.0 78 1.8 NNW 6 9 3 5 1012.6 1012.6 0.0
25/06:00pm 11.6 10.0 8.6 82 1.5 N 7 13 4 7 1012.4 1012.4 0.0
25/05:30pm 12.1 10.4 8.4 78 1.8 N 7 17 4 9 1012.5 1012.5 0.0
25/05:00pm 12.7 9.8 8.0 73 2.3 N 13 20 7 11 1012.0 1012.0 0.0
25/04:30pm 14.2 11.4 8.4 68 2.9 N 13 19 7 10 1011.8 1011.8 0.0
25/04:00pm 14.7 12.5 9.3 70 2.8 N 11 19 6 10 1012.1 1012.1 0.0
25/03:30pm 14.8 11.7 8.7 67 3.1 N 15 24 8 13 1011.9 1011.9 0.0
25/03:00pm 13.8 10.3 8.8 72 2.5 NNE 17 28 9 15 1012.2 1012.2 0.0
25/02:30pm 15.4 11.5 9.5 68 3.1 NNE 20 32 11 17 1012.1 1012.1 0.0
25/02:00pm 14.7 11.7 9.1 69 2.9 NNE 15 24 8 13 1012.5 1012.5 0.0
25/01:30pm 14.5 11.1 9.1 70 2.8 NNE 17 24 9 13 1012.5 1012.5 0.0
25/01:00pm 14.4 10.8 8.4 67 3.0 NNE 17 28 9 15 1012.6 1012.6 0.0
25/12:30pm 14.2 10.6 8.2 67 3.0 NNE 17 24 9 13 1013.1 1013.1 0.0
25/12:00pm 14.1 10.4 7.9 66 3.1 NNE 17 24 9 13 1013.4 1013.4 0.0
25/11:30am 13.9 10.6 8.1 68 2.9 NNE 15 22 8 12 1013.7 1013.7 0.0
25/11:00am 14.1 10.6 7.4 64 3.3 NE 15 20 8 11 1013.7 1013.7 0.0
25/10:30am 14.0 11.0 7.5 65 3.2 NE 13 20 7 11 1013.9 1013.9 0.0
25/10:00am 13.8 11.1 7.3 65 3.2 NE 11 19 6 10 1014.1 1014.1 0.0
25/09:30am 13.0 10.6 7.2 68 2.8 ENE 9 15 5 8 1014.3 1014.3 0.0
25/09:00am 10.8 9.9 6.2 73 2.2 CALM 0 2 0 1 1014.4 1014.4 3.6
25/08:30am 10.3 8.9 7.4 82 1.4 W 4 6 2 3 1014.5 1014.5 3.6
25/08:00am 8.3 6.2 5.9 85 1.1 WNW 6 7 3 4 1014.5 1014.5 3.6
25/07:30am 7.2 4.9 5.5 89 0.8 WNW 7 9 4 5 1014.5 1014.5 3.6
25/07:00am 5.8 2.9 4.6 92 0.5 WNW 9 11 5 6 1014.6 1014.6 3.6
25/06:30am 5.1 1.7 4.1 93 0.4 WNW 11 13 6 7 1014.7 1014.7 3.6
25/06:00am 4.6 1.1 3.6 93 0.4 WNW 11 13 6 7 1014.6 1014.6 3.6
25/05:30am 4.7 1.2 3.7 93 0.4 WNW 11 13 6 7 1014.5 1014.5 3.6
25/05:00am 4.8 1.4 3.8 93 0.4 WNW 11 13 6 7 1014.3 1014.3 3.6
25/04:30am 4.8 1.4 3.8 93 0.4 WNW 11 13 6 7 1014.4 1014.4 3.6
25/04:00am 5.3 2.0 4.3 93 0.4 WNW 11 13 6 7 1014.4 1014.4 3.6
25/03:30am 5.4 2.1 4.4 93 0.4 WNW 11 13 6 7 1014.4 1014.4 3.6
25/03:00am 5.5 2.2 4.5 93 0.4 WNW 11 13 6 7 1014.4 1014.4 3.6
25/02:30am 5.5 2.2 4.5 93 0.4 WNW 11 13 6 7 1014.6 1014.6 3.6
25/02:00am 5.6 2.3 4.6 93 0.4 WNW 11 13 6 7 1014.8 1014.8 3.6
25/01:30am 5.7 2.4 4.7 93 0.4 W 11 13 6 7 1015.0 1015.0 3.6
25/01:00am 5.9 2.7 4.9 93 0.4 WNW 11 15 6 8 1015.2 1015.3 3.6
25/12:30am 5.8 2.5 4.8 93 0.4 WNW 11 13 6 7 1015.3 1015.4 3.6
25/12:00am 5.9 3.0 4.9 93 0.4 W 9 13 5 7 1015.2 1015.3 3.6
 
Date/Time
EST
Temp
°C
App
Temp
°C
Dew
Point
°C
Rel
Hum
%
Delta-T
°C
Wind Press
QNH
hPa
Press
MSL
hPa
Rain since
9am
mm
Dir  Spd
km/h
Gust
km/h
Spd
kts
Gust
kts
24/11:30pm 6.2 3.4 5.0 92 0.5 WNW 9 13 5 7 1015.4 1015.5 3.6
24/11:00pm 6.4 3.2 5.2 92 0.5 WNW 11 13 6 7 1015.4 1015.5 3.6
24/10:30pm 6.6 3.8 5.2 91 0.6 WNW 9 11 5 6 1015.6 1015.7 3.4
24/10:00pm 6.7 4.3 5.2 90 0.7 W 7 11 4 6 1015.8 1015.9 3.4
24/09:30pm 7.1 4.7 5.4 89 0.8 W 7 9 4 5 1016.0 1016.1 3.4
24/09:00pm 7.0 4.6 5.3 89 0.8 W 7 9 4 5 1016.0 1016.1 3.4
24/08:30pm 7.2 4.8 5.2 87 0.9 W 7 9 4 5 1016.0 1016.1 3.4
24/08:00pm 6.9 4.4 4.6 85 1.0 SW 7 11 4 6 1016.1 1016.2 3.4
24/07:30pm 7.0 4.5 4.7 85 1.0 WSW 7 9 4 5 1016.1 1016.2 3.4
24/07:00pm 7.0 4.5 4.5 84 1.1 SW 7 11 4 6 1015.9 1016.0 3.4
24/06:30pm 7.8 4.9 4.7 81 1.4 S 9 13 5 7 1015.7 1015.8 3.4
24/06:00pm 8.8 5.7 5.7 81 1.4 S 11 17 6 9 1015.7 1015.8 3.4
24/05:30pm 10.3 6.8 7.4 82 1.4 S 15 24 8 13 1015.7 1015.8 3.4
24/05:00pm 11.3 6.3 8.0 80 1.6 SSE 24 33 13 18 1015.4 1015.5 3.4
24/04:30pm 10.5 5.1 8.1 85 1.2 SSE 26 35 14 19 1015.3 1015.4 3.4
24/04:00pm 10.2 7.0 8.5 89 0.8 S 15 24 8 13 1015.3 1015.4 3.4
24/03:30pm 10.4 7.3 8.8 90 0.8 SSE 15 26 8 14 1015.5 1015.6 3.4
24/03:00pm 10.7 6.3 8.8 88 0.9 SE 22 33 12 18 1015.4 1015.5 3.4
24/02:30pm 10.1 6.5 8.5 90 0.8 SSE 17 39 9 21 1015.5 1015.6 3.4
24/02:00pm 10.2 7.5 9.0 92 0.6 S 13 22 7 12 1015.6 1015.7 3.4
24/01:30pm 9.7 6.4 8.1 90 0.8 S 15 26 8 14 1015.8 1015.9 3.0
24/01:00pm 9.8 5.8 8.4 91 0.7 S 19 26 10 14 1015.9 1016.0 2.6
24/12:30pm 9.8 4.9 8.4 91 0.7 SSE 24 35 13 19 1015.9 1016.0 2.4
24/12:00pm 9.6 6.7 8.0 90 0.8 S 13 24 7 13 1016.2 1016.3 2.2
24/11:30am 10.0 5.8 8.4 90 0.8 SSE 20 35 11 19 1016.1 1016.2 1.8
24/11:00am 9.9 7.1 8.7 92 0.6 S 13 22 7 12 1016.4 1016.5 1.6
24/10:30am 9.0 2.7 7.6 91 0.7 SSE 30 41 16 22 1016.6 1016.7 1.4
24/10:00am 9.4 5.2 8.2 92 0.6 SSE 20 37 11 20 1016.8 1016.9 1.4
24/09:30am 9.8 6.3 8.7 93 0.5 SSE 17 30 9 16 1016.7 1016.8 0.6
24/09:00am 9.1 5.8 8.0 93 0.5 S 15 24 8 13 1016.9 1017.0 20.2
24/08:30am 8.6 5.6 7.5 93 0.5 S 13 19 7 10 1016.9 1017.0 19.2
24/08:00am 8.8 6.6 7.7 93 0.5 SSW 9 13 5 7 1016.6 1016.7 18.4
24/07:30am 8.8 5.8 7.7 93 0.5 S 13 24 7 13 1016.5 1016.6 17.6
24/07:00am 8.9 6.0 8.0 94 0.4 S 13 24 7 13 1016.2 1016.3 16.8
24/06:30am 8.6 6.0 7.7 94 0.4 S 11 24 6 13 1016.2 1016.3 16.2
24/06:00am 8.5 5.9 7.6 94 0.4 S 11 22 6 12 1016.1 1016.2 15.2
24/05:30am 8.5 5.1 7.6 94 0.4 S 15 26 8 14 1015.8 1015.9 14.2
24/05:00am 8.5 5.1 7.6 94 0.4 S 15 20 8 11 1015.7 1015.8 14.0
24/04:30am 8.5 5.1 7.7 95 0.4 S 15 24 8 13 1015.6 1015.7 13.6
24/04:00am 8.5 5.9 7.7 95 0.4 S 11 22 6 12 1015.5 1015.6 13.2
24/03:30am 8.5 5.9 7.7 95 0.4 SSW 11 19 6 10 1015.7 1015.8 11.8
24/03:00am 8.6 6.4 7.8 95 0.4 SSW 9 19 5 10 1015.6 1015.7 10.8
24/02:30am 8.7 6.1 7.9 95 0.4 SSW 11 17 6 9 1015.8 1015.9 9.8
24/02:00am 8.9 6.8 8.1 95 0.4 SSW 9 13 5 7 1015.8 1015.9 8.6
24/01:30am 8.8 6.2 7.9 94 0.4 SSW 11 19 6 10 1016.0 1016.1 7.6
24/01:00am 9.0 6.5 8.1 94 0.4 SSW 11 20 6 11 1016.2 1016.3 5.2
24/12:30am 9.2 6.3 8.3 94 0.4 SSW 13 26 7 14 1016.0 1016.1 4.0
24/12:00am 9.3 6.8 8.4 94 0.4 SSW 11 19 6 10 1015.9 1016.0 3.8
 
Date/Time
EST
Temp
°C
App
Temp
°C
Dew
Point
°C
Rel
Hum
%
Delta-T
°C
Wind Press
QNH
hPa
Press
MSL
hPa
Rain since
9am
mm
Dir  Spd
km/h
Gust
km/h
Spd
kts
Gust
kts
23/11:30pm 9.4 5.5 8.5 94 0.4 SSW 19 30 10 16 1015.9 1016.0 3.6

Other formats

Comma delimited format used in spreadsheet applications
http://www.bom.gov.au/fwo/IDT60801/IDT60801.94987.axf

JavaScript Object Notation format (JSON) in row-major order
http://www.bom.gov.au/fwo/IDT60801/IDT60801.94987.json

Data quality

Most of these data are generated automatically and are frequently updated. Quality checks on data are not normally performed. It is possible for incorrect values to appear. Refer to information at About Latest Weather Observations and please check the disclaimer before using these data.